createdAt,value
2023-02-14T00:02:11.658Z,103200.22
2023-02-14T00:04:38.135Z,103207.38
2023-02-14T00:07:04.493Z,103202.25
2023-02-14T00:09:30.881Z,103206.59
2023-02-14T00:11:58.568Z,103203.19
2023-02-14T00:14:24.928Z,103197.16
2023-02-14T00:16:51.774Z,103194.53
2023-02-14T00:19:18.830Z,103190.22
2023-02-14T00:21:45.280Z,103194.56
2023-02-14T00:24:12.828Z,103187.56
2023-02-14T00:26:39.718Z,103193.50
2023-02-14T00:29:08.430Z,103181.94
2023-02-14T00:31:35.263Z,103187.91
2023-02-14T00:34:01.660Z,103184.25
2023-02-14T00:36:27.990Z,103183.31
2023-02-14T00:38:54.347Z,103184.03
2023-02-14T00:41:20.727Z,103186.34
2023-02-14T00:43:47.328Z,103181.03
2023-02-14T00:46:15.609Z,103179.22
2023-02-14T00:48:42.322Z,103183.44
2023-02-14T00:51:09.202Z,103180.03
2023-02-14T00:53:35.546Z,103177.59
2023-02-14T00:56:01.990Z,103180.41
2023-02-14T00:58:28.297Z,103180.41
2023-02-14T01:00:54.740Z,103179.44
2023-02-14T01:03:22.412Z,103178.56
2023-02-14T01:05:48.753Z,103181.16
2023-02-14T01:08:15.081Z,103182.91
2023-02-14T01:10:41.503Z,103189.03
2023-02-14T01:13:07.797Z,103192.44
2023-02-14T01:15:38.083Z,103187.09
2023-02-14T01:18:04.502Z,103193.94
2023-02-14T01:20:32.458Z,103200.81
2023-02-14T01:22:58.761Z,103192.84
2023-02-14T01:25:25.074Z,103187.47
2023-02-14T01:27:51.464Z,103190.09
2023-02-14T01:30:18.231Z,103187.66
2023-02-14T01:32:44.668Z,103192.16
2023-02-14T01:35:11.379Z,103190.41
2023-02-14T01:37:39.040Z,103193.84
2023-02-14T01:40:06.982Z,103185.97
2023-02-14T01:42:34.140Z,103193.75
2023-02-14T01:45:02.526Z,103188.47
2023-02-14T01:47:30.645Z,103185.78
2023-02-14T01:49:59.693Z,103189.38
2023-02-14T01:52:27.784Z,103192.91
2023-02-14T01:54:57.739Z,103188.59
2023-02-14T01:57:26.780Z,103189.47
2023-02-14T01:59:55.361Z,103180.75
2023-02-14T02:02:22.109Z,103179.03
2023-02-14T02:04:48.973Z,103174.78
2023-02-14T02:07:18.352Z,103178.41
2023-02-14T02:09:47.011Z,103183.69
2023-02-14T02:12:14.798Z,103176.75
2023-02-14T02:14:41.538Z,103176.81
2023-02-14T02:17:15.936Z,103173.22
2023-02-14T02:20:00.371Z,103174.91
2023-02-14T02:22:47.782Z,103166.94
2023-02-14T02:25:22.688Z,103169.44
2023-02-14T02:28:10.033Z,103163.41
2023-02-14T02:30:42.457Z,103163.47
2023-02-14T02:33:27.560Z,103163.59
2023-02-14T02:36:08.799Z,103165.41
2023-02-14T02:38:45.435Z,103161.91
2023-02-14T02:41:17.474Z,103163.69
2023-02-14T02:43:49.892Z,103161.13
2023-02-14T02:46:18.982Z,103152.44
2023-02-14T02:48:48.517Z,103159.50
2023-02-14T02:51:17.573Z,103149.97
2023-02-14T02:53:50.282Z,103149.09
2023-02-14T02:56:19.103Z,103151.72
2023-02-14T02:58:46.762Z,103152.63
2023-02-14T03:01:14.801Z,103155.28
2023-02-14T03:03:44.015Z,103156.16
2023-02-14T03:06:10.357Z,103157.88
2023-02-14T03:08:36.677Z,103156.16
2023-02-14T03:11:04.852Z,103162.31
2023-02-14T03:13:42.756Z,103161.41
2023-02-14T03:16:21.842Z,103153.59
2023-02-14T03:18:57.750Z,103159.84
2023-02-14T03:21:28.648Z,103160.78
2023-02-14T03:23:57.777Z,103159.13
2023-02-14T03:26:29.826Z,103163.63
2023-02-14T03:29:00.073Z,103163.72
2023-02-14T03:31:31.033Z,103167.16
2023-02-14T03:33:59.414Z,103173.25
2023-02-14T03:36:27.779Z,103170.59
2023-02-14T03:38:56.593Z,103170.50
2023-02-14T03:41:24.528Z,103168.75
2023-02-14T03:43:53.393Z,103167.84
2023-02-14T03:46:22.645Z,103172.22
2023-02-14T03:48:51.345Z,103173.13
2023-02-14T03:51:19.375Z,103165.34
2023-02-14T03:53:47.636Z,103173.22
2023-02-14T03:56:15.221Z,103174.13
2023-02-14T03:58:43.555Z,103175.94
2023-02-14T04:01:14.490Z,103169.81
2023-02-14T04:03:42.361Z,103171.56
2023-02-14T04:06:09.531Z,103167.25
2023-02-14T04:08:35.830Z,103167.31
2023-02-14T04:11:03.189Z,103170.09
2023-02-14T04:13:29.570Z,103175.44
2023-02-14T04:15:55.921Z,103173.91
2023-02-14T04:18:23.633Z,103167.97
2023-02-14T04:20:49.929Z,103166.41
2023-02-14T04:23:16.261Z,103168.25
2023-02-14T04:25:42.612Z,103168.38
2023-02-14T04:28:09.302Z,103166.78
2023-02-14T04:30:35.594Z,103165.22
2023-02-14T04:33:02.505Z,103167.97
2023-02-14T04:35:30.289Z,103159.34
2023-02-14T04:37:56.654Z,103164.66
2023-02-14T04:40:23.066Z,103160.34
2023-02-14T04:42:49.386Z,103151.69
2023-02-14T04:45:15.727Z,103155.16
2023-02-14T04:47:42.069Z,103155.09
2023-02-14T04:50:08.755Z,103144.66
2023-02-14T04:52:36.451Z,103155.94
2023-02-14T04:55:02.804Z,103153.31
2023-02-14T04:57:29.195Z,103156.00
2023-02-14T04:59:55.615Z,103150.88
2023-02-14T05:02:22.077Z,103149.19
2023-02-14T05:04:49.796Z,103147.41
2023-02-14T05:07:16.249Z,103138.69
2023-02-14T05:09:43.886Z,103134.31
2023-02-14T05:12:10.254Z,103135.13
2023-02-14T05:14:36.611Z,103137.72
2023-02-14T05:17:02.929Z,103136.00
2023-02-14T05:19:29.218Z,103128.13
2023-02-14T05:21:55.528Z,103133.38
2023-02-14T05:24:21.823Z,103125.53
2023-02-14T05:26:49.443Z,103123.75
2023-02-14T05:29:15.726Z,103116.81
2023-02-14T05:31:42.143Z,103120.28
2023-02-14T05:34:08.523Z,103125.53
2023-02-14T05:36:34.816Z,103124.75
2023-02-14T05:39:01.112Z,103123.84
2023-02-14T05:41:27.448Z,103124.66
2023-02-14T05:43:55.073Z,103122.06
2023-02-14T05:46:21.402Z,103119.56
2023-02-14T05:48:47.712Z,103124.03
2023-02-14T05:51:14.012Z,103130.16
2023-02-14T05:53:40.301Z,103121.44
2023-02-14T05:56:06.905Z,103126.69
2023-02-14T05:58:33.336Z,103126.69
2023-02-14T06:01:01.388Z,103126.69
2023-02-14T06:03:28.114Z,103124.06
2023-02-14T06:05:54.634Z,103130.16
2023-02-14T06:08:20.971Z,103135.41
2023-02-14T06:10:47.283Z,103130.19
2023-02-14T06:13:13.707Z,103133.66
2023-02-14T06:15:40.030Z,103132.66
2023-02-14T06:18:07.689Z,103138.66
2023-02-14T06:20:34.060Z,103135.09
2023-02-14T06:23:00.399Z,103134.19
2023-02-14T06:25:26.719Z,103137.69
2023-02-14T06:27:55.633Z,103131.59
2023-02-14T06:30:22.014Z,103136.88
2023-02-14T06:32:48.383Z,103130.81
2023-02-14T06:35:16.327Z,103134.31
2023-02-14T06:37:42.620Z,103139.56
2023-02-14T06:40:09.750Z,103139.56
2023-02-14T06:42:36.065Z,103139.56
2023-02-14T06:45:02.376Z,103134.44
2023-02-14T06:47:28.661Z,103142.38
2023-02-14T06:49:54.990Z,103144.09
2023-02-14T06:52:22.632Z,103136.22
2023-02-14T06:54:48.922Z,103144.91
2023-02-14T06:57:15.201Z,103149.31
2023-02-14T06:59:41.534Z,103144.91
2023-02-14T07:02:09.849Z,103143.22
2023-02-14T07:04:36.179Z,103154.59
2023-02-14T07:07:02.511Z,103145.00
2023-02-14T07:09:30.218Z,103139.75
2023-02-14T07:11:56.521Z,103144.16
2023-02-14T07:14:22.961Z,103146.00
2023-02-14T07:16:49.279Z,103151.28
2023-02-14T07:19:15.574Z,103150.44
2023-02-14T07:21:41.944Z,103151.38
2023-02-14T07:24:08.229Z,103157.53
2023-02-14T07:26:35.894Z,103157.47
2023-02-14T07:29:02.241Z,103154.72
2023-02-14T07:31:28.616Z,103160.63
2023-02-14T07:33:54.992Z,103164.78
2023-02-14T07:36:21.309Z,103164.59
2023-02-14T07:38:47.637Z,103158.31
2023-02-14T07:41:13.950Z,103166.84
2023-02-14T07:43:41.609Z,103157.94
2023-02-14T07:46:07.928Z,103157.75
2023-02-14T07:48:34.771Z,103159.28
2023-02-14T07:51:01.578Z,103156.53
2023-02-14T07:53:28.150Z,103156.34
2023-02-14T07:55:54.764Z,103156.16
2023-02-14T07:58:21.171Z,103157.72
2023-02-14T08:00:48.844Z,103159.31
2023-02-14T08:03:15.493Z,103158.25
2023-02-14T08:05:42.004Z,103156.38
2023-02-14T08:08:08.311Z,103153.66
2023-02-14T08:10:34.672Z,103151.72
2023-02-14T08:13:01.070Z,103152.44
2023-02-14T08:15:28.454Z,103152.25
2023-02-14T08:17:56.897Z,103152.09
2023-02-14T08:20:23.220Z,103146.59
2023-02-14T08:22:49.559Z,103151.66
2023-02-14T08:25:15.915Z,103147.91
2023-02-14T08:27:42.237Z,103148.69
2023-02-14T08:30:08.994Z,103141.50
2023-02-14T08:32:35.652Z,103148.22
2023-02-14T08:35:03.393Z,103134.00
2023-02-14T08:37:29.721Z,103145.94
2023-02-14T08:39:56.011Z,103136.94
2023-02-14T08:42:22.322Z,103132.25
2023-02-14T08:44:48.631Z,103138.03
2023-02-14T08:47:14.972Z,103141.16
2023-02-14T08:49:41.320Z,103141.78
2023-02-14T08:52:09.043Z,103136.19
2023-02-14T08:54:35.389Z,103132.44
2023-02-14T08:57:01.724Z,103128.66
2023-02-14T08:59:28.073Z,103132.69
2023-02-14T09:01:54.456Z,103129.00
2023-02-14T09:04:20.896Z,103129.56
2023-02-14T09:06:47.240Z,103125.75
2023-02-14T09:09:14.917Z,103128.16
2023-02-14T09:11:41.257Z,103132.16
2023-02-14T09:14:07.621Z,103129.94
2023-02-14T09:16:33.980Z,103133.00
2023-02-14T09:19:00.330Z,103124.66
2023-02-14T09:21:27.653Z,103124.16
2023-02-14T09:23:54.243Z,103125.50
2023-02-14T09:26:22.032Z,103121.53
2023-02-14T09:28:48.725Z,103121.28
2023-02-14T09:31:16.407Z,103127.72
2023-02-14T09:33:43.411Z,103124.56
2023-02-14T09:36:09.794Z,103120.53
2023-02-14T09:38:36.097Z,103122.69
2023-02-14T09:41:05.326Z,103115.94
2023-02-14T09:43:36.474Z,103114.69
2023-02-14T09:46:03.836Z,103119.47
2023-02-14T09:48:32.414Z,103115.41
2023-02-14T09:51:01.371Z,103119.34
2023-02-14T09:53:29.162Z,103119.75
2023-02-14T09:56:01.109Z,103117.47
2023-02-14T09:58:29.858Z,103119.59
2023-02-14T10:01:02.334Z,103103.22
2023-02-14T10:03:34.566Z,103112.31
2023-02-14T10:06:04.660Z,103110.00
2023-02-14T10:08:41.092Z,103109.66
2023-02-14T10:11:10.612Z,103099.47
2023-02-14T10:13:40.130Z,103111.28
2023-02-14T10:16:11.251Z,103106.44
2023-02-14T10:18:40.969Z,103108.59
2023-02-14T10:21:07.707Z,103103.69
2023-02-14T10:23:36.458Z,103106.72
2023-02-14T10:26:04.481Z,103109.03
2023-02-14T10:28:32.186Z,103100.69
2023-02-14T10:31:04.336Z,103101.22
2023-02-14T10:33:34.068Z,103110.47
2023-02-14T10:36:03.094Z,103112.53
2023-02-14T10:38:37.690Z,103106.72
2023-02-14T10:41:07.515Z,103099.06
2023-02-14T10:43:39.856Z,103100.25
2023-02-14T10:46:11.142Z,103099.59
2023-02-14T10:48:43.417Z,103093.03
2023-02-14T10:51:15.206Z,103087.00
2023-02-14T10:53:45.070Z,103087.38
2023-02-14T10:56:16.522Z,103084.25
2023-02-14T10:58:43.079Z,103079.66
2023-02-14T11:01:12.073Z,103082.00
2023-02-14T11:03:43.602Z,103071.06
2023-02-14T11:06:10.378Z,103079.41
2023-02-14T11:08:38.014Z,103069.13
2023-02-14T11:11:10.701Z,103071.13
2023-02-14T11:13:37.920Z,103068.09
2023-02-14T11:16:05.438Z,103059.00
2023-02-14T11:18:32.158Z,103065.00
2023-02-14T11:21:04.705Z,103057.41
2023-02-14T11:23:35.343Z,103056.09
2023-02-14T11:26:02.862Z,103052.31
2023-02-14T11:28:29.505Z,103056.75
2023-02-14T11:30:56.134Z,103057.53
2023-02-14T11:33:27.740Z,103048.44
2023-02-14T11:35:54.232Z,103045.47
2023-02-14T11:38:26.387Z,103049.75
2023-02-14T11:40:54.621Z,103038.47
2023-02-14T11:43:29.671Z,103036.84
2023-02-14T11:46:05.319Z,103033.34
2023-02-14T11:48:38.245Z,103028.44
2023-02-14T11:51:06.363Z,103030.81
2023-02-14T11:53:39.794Z,103022.47
2023-02-14T11:56:06.244Z,103020.47
2023-02-14T11:58:34.990Z,103016.66
2023-02-14T12:01:01.723Z,103011.66
2023-02-14T12:03:28.436Z,103005.28
2023-02-14T12:05:55.808Z,103000.63
2023-02-14T12:08:24.683Z,102998.72
2023-02-14T12:11:02.190Z,102994.19
2023-02-14T12:13:28.765Z,102985.16
2023-02-14T12:15:56.120Z,102985.06
2023-02-14T12:18:27.647Z,102978.59
2023-02-14T12:20:56.439Z,102975.63
2023-02-14T12:23:25.300Z,102976.88
2023-02-14T12:25:56.323Z,102967.72
2023-02-14T12:28:28.079Z,102954.91
2023-02-14T12:30:54.469Z,102949.31
2023-02-14T12:33:21.962Z,102947.75
2023-02-14T12:35:54.335Z,102943.50
2023-02-14T12:38:25.093Z,102949.28
2023-02-14T12:40:57.033Z,102942.16
2023-02-14T12:43:34.169Z,102943.75
2023-02-14T12:46:14.942Z,102941.63
2023-02-14T12:48:50.139Z,102935.56
2023-02-14T12:51:20.742Z,102933.78
2023-02-14T12:54:01.935Z,102923.25
2023-02-14T12:56:36.176Z,102928.97
2023-02-14T12:59:10.832Z,102917.81
2023-02-14T13:01:56.194Z,102920.03
2023-02-14T13:04:32.150Z,102914.31
2023-02-14T13:07:01.268Z,102913.31
2023-02-14T13:09:34.955Z,102909.47
2023-02-14T13:12:08.066Z,102908.53
2023-02-14T13:14:44.572Z,102906.72
2023-02-14T13:17:15.624Z,102902.25
2023-02-14T13:19:47.406Z,102904.06
2023-02-14T13:22:17.054Z,102896.94
2023-02-14T13:24:44.842Z,102895.97
2023-02-14T13:27:13.660Z,102894.78
2023-02-14T13:29:44.841Z,102887.03
2023-02-14T13:32:13.840Z,102885.75
2023-02-14T13:34:43.564Z,102878.88
2023-02-14T13:37:11.486Z,102876.72
2023-02-14T13:39:40.925Z,102879.94
2023-02-14T13:42:07.712Z,102882.72
2023-02-14T13:44:45.104Z,102875.91
2023-02-14T13:47:18.765Z,102881.47
2023-02-14T13:49:49.912Z,102868.47
2023-02-14T13:52:31.089Z,102874.00
2023-02-14T13:55:01.307Z,102867.31
2023-02-14T13:57:30.104Z,102865.94
2023-02-14T14:00:14.103Z,102865.22
2023-02-14T14:02:45.508Z,102867.78
2023-02-14T14:05:30.347Z,102866.06
2023-02-14T14:08:11.526Z,102862.66
2023-02-14T14:10:42.562Z,102858.28
2023-02-14T14:13:08.846Z,102855.63
2023-02-14T14:15:35.189Z,102850.31
2023-02-14T14:18:20.076Z,102847.66
2023-02-14T14:20:47.986Z,102843.50
2023-02-14T14:23:29.445Z,102841.81
2023-02-14T14:25:55.747Z,102843.63
2023-02-14T14:28:24.203Z,102837.44
2023-02-14T14:30:50.775Z,102838.28
2023-02-14T14:33:23.674Z,102840.84
2023-02-14T14:35:53.752Z,102831.19
2023-02-14T14:38:20.091Z,102832.13
2023-02-14T14:40:47.664Z,102830.47
2023-02-14T14:43:16.093Z,102832.13
2023-02-14T14:45:45.582Z,102837.44
2023-02-14T14:48:13.384Z,102833.84
2023-02-14T14:50:44.067Z,102833.84
2023-02-14T14:53:19.843Z,102828.50
2023-02-14T14:55:46.719Z,102827.66
2023-02-14T14:58:31.992Z,102824.16
2023-02-14T15:00:58.344Z,102825.84
2023-02-14T15:03:25.954Z,102817.56
2023-02-14T15:06:02.239Z,102813.00
2023-02-14T15:08:30.483Z,102817.13
2023-02-14T15:10:59.215Z,102820.13
2023-02-14T15:13:29.805Z,102815.06
2023-02-14T15:15:56.717Z,102817.00
2023-02-14T15:18:23.271Z,102813.69
2023-02-14T15:20:49.969Z,102817.97
2023-02-14T15:23:17.476Z,102815.25
2023-02-14T15:25:46.228Z,102813.81
2023-02-14T15:28:14.591Z,102816.50
2023-02-14T15:30:40.957Z,102818.38
2023-02-14T15:33:07.759Z,102812.72
2023-02-14T15:35:39.103Z,102814.78
2023-02-14T15:38:06.847Z,102806.84
2023-02-14T15:40:33.906Z,102810.84
2023-02-14T15:43:12.518Z,102806.78
2023-02-14T15:45:38.960Z,102805.91
2023-02-14T15:48:11.509Z,102812.56
2023-02-14T15:50:43.397Z,102811.22
2023-02-14T15:53:23.824Z,102813.41
2023-02-14T15:55:50.483Z,102801.31
2023-02-14T15:58:20.158Z,102800.34
2023-02-14T16:00:46.732Z,102798.31
2023-02-14T16:03:18.416Z,102802.81
2023-02-14T16:05:46.143Z,102796.81
2023-02-14T16:08:25.024Z,102798.25
2023-02-14T16:10:58.482Z,102803.69
2023-02-14T16:13:30.426Z,102804.22
2023-02-14T16:15:57.607Z,102806.31
2023-02-14T16:18:32.688Z,102813.31
2023-02-14T16:21:09.303Z,102806.16
2023-02-14T16:23:37.055Z,102803.25
2023-02-14T16:26:05.055Z,102801.06
2023-02-14T16:28:33.309Z,102799.69
2023-02-14T16:31:01.035Z,102796.00
2023-02-14T16:33:28.776Z,102790.41
2023-02-14T16:35:56.935Z,102796.41
2023-02-14T16:38:23.243Z,102795.94
2023-02-14T16:40:50.455Z,102794.31
2023-02-14T16:43:17.722Z,102789.84
2023-02-14T16:45:45.723Z,102791.31
2023-02-14T16:48:12.574Z,102794.69
2023-02-14T16:50:39.507Z,102794.13
2023-02-14T16:53:08.007Z,102787.38
2023-02-14T16:55:34.469Z,102790.09
2023-02-14T16:58:01.983Z,102795.44
2023-02-14T17:00:28.301Z,102804.28
2023-02-14T17:02:56.102Z,102803.44
2023-02-14T17:05:22.456Z,102806.16
2023-02-14T17:07:48.814Z,102810.59
2023-02-14T17:10:17.401Z,102814.94
2023-02-14T17:12:45.642Z,102816.00
2023-02-14T17:15:13.263Z,102817.72
2023-02-14T17:17:39.835Z,102811.69
2023-02-14T17:20:08.515Z,102813.25
2023-02-14T17:22:34.826Z,102820.97
2023-02-14T17:25:01.165Z,102816.03
2023-02-14T17:27:27.477Z,102820.91
2023-02-14T17:29:53.935Z,102817.50
2023-02-14T17:32:20.370Z,102817.59
2023-02-14T17:34:46.755Z,102818.59
2023-02-14T17:37:14.434Z,102818.72
2023-02-14T17:39:40.867Z,102821.53
2023-02-14T17:42:07.185Z,102818.28
2023-02-14T17:44:33.604Z,102817.97
2023-02-14T17:46:59.919Z,102822.22
2023-02-14T17:49:26.222Z,102821.91
2023-02-14T17:51:52.540Z,102827.00
2023-02-14T17:54:20.215Z,102818.66
2023-02-14T17:56:47.875Z,102813.72
2023-02-14T17:59:14.244Z,102821.19
2023-02-14T18:01:40.563Z,102817.19
2023-02-14T18:04:07.077Z,102814.22
2023-02-14T18:06:33.441Z,102808.91
2023-02-14T18:08:59.772Z,102812.41
2023-02-14T18:11:28.060Z,102815.06
2023-02-14T18:13:54.609Z,102819.50
2023-02-14T18:16:21.216Z,102811.72
2023-02-14T18:18:47.813Z,102813.59
2023-02-14T18:21:14.901Z,102809.41
2023-02-14T18:23:41.653Z,102818.34
2023-02-14T18:26:09.810Z,102815.28
2023-02-14T18:28:37.973Z,102819.94
2023-02-14T18:31:05.192Z,102817.25
2023-02-14T18:33:31.553Z,102822.16
2023-02-14T18:36:00.696Z,102811.69
2023-02-14T18:38:27.005Z,102809.06
2023-02-14T18:40:53.322Z,102808.19
2023-02-14T18:43:19.620Z,102797.56
2023-02-14T18:45:47.308Z,102798.31
2023-02-14T18:48:13.628Z,102797.56
2023-02-14T18:50:39.962Z,102796.31
2023-02-14T18:53:06.229Z,102797.56
2023-02-14T18:55:32.502Z,102803.16
2023-02-14T18:57:58.813Z,102794.72
2023-02-14T19:00:25.225Z,102788.84
2023-02-14T19:02:52.885Z,102778.78
2023-02-14T19:05:19.324Z,102788.69
2023-02-14T19:07:45.653Z,102782.16
2023-02-14T19:10:11.999Z,102782.56
2023-02-14T19:12:38.323Z,102771.44
2023-02-14T19:15:04.870Z,102769.06
2023-02-14T19:17:31.216Z,102764.66
2023-02-14T19:19:58.909Z,102768.19
2023-02-14T19:22:25.233Z,102774.31
2023-02-14T19:24:51.886Z,102772.69
2023-02-14T19:27:18.260Z,102771.06
2023-02-14T19:29:44.658Z,102761.97
2023-02-14T19:32:11.065Z,102763.13
2023-02-14T19:34:37.390Z,102756.22
2023-02-14T19:37:05.201Z,102759.00
2023-02-14T19:39:31.512Z,102756.59
2023-02-14T19:41:58.790Z,102755.03
2023-02-14T19:44:25.177Z,102756.94
2023-02-14T19:46:52.239Z,102768.56
2023-02-14T19:49:19.239Z,102754.06
2023-02-14T19:51:46.042Z,102752.50
2023-02-14T19:54:13.758Z,102758.75
2023-02-14T19:56:40.817Z,102754.53
2023-02-14T19:59:07.471Z,102747.44
2023-02-14T20:01:35.010Z,102750.34
2023-02-14T20:04:01.458Z,102746.94
2023-02-14T20:06:27.814Z,102747.06
2023-02-14T20:08:54.107Z,102747.38
2023-02-14T20:11:26.555Z,102745.84
2023-02-14T20:13:53.066Z,102737.28
2023-02-14T20:16:19.411Z,102744.75
2023-02-14T20:18:45.725Z,102739.75
2023-02-14T20:21:14.905Z,102735.75
2023-02-14T20:23:41.233Z,102735.81
2023-02-14T20:26:10.812Z,102737.72
2023-02-14T20:28:38.502Z,102730.06
2023-02-14T20:31:06.251Z,102731.03
2023-02-14T20:33:32.669Z,102731.22
2023-02-14T20:35:58.991Z,102726.97
2023-02-14T20:38:25.318Z,102730.72
2023-02-14T20:40:51.648Z,102728.94
2023-02-14T20:43:17.962Z,102735.00
2023-02-14T20:45:45.624Z,102727.03
2023-02-14T20:48:11.927Z,102727.91
2023-02-14T20:50:38.283Z,102725.28
2023-02-14T20:53:04.603Z,102719.47
2023-02-14T20:55:30.918Z,102720.81
2023-02-14T20:57:57.440Z,102718.50
2023-02-14T21:00:23.758Z,102723.19
2023-02-14T21:02:51.403Z,102716.28
2023-02-14T21:05:17.713Z,102714.69
2023-02-14T21:07:44.007Z,102707.94
2023-02-14T21:10:10.498Z,102709.78
2023-02-14T21:12:36.865Z,102707.16
2023-02-14T21:15:03.273Z,102710.63
2023-02-14T21:17:29.621Z,102701.78
2023-02-14T21:19:57.293Z,102705.09
2023-02-14T21:22:23.720Z,102707.72
2023-02-14T21:24:50.064Z,102692.03
2023-02-14T21:27:16.407Z,102706.25
2023-02-14T21:29:42.870Z,102702.03
2023-02-14T21:32:09.260Z,102702.34
2023-02-14T21:34:35.601Z,102701.44
2023-02-14T21:37:03.278Z,102703.22
2023-02-14T21:39:29.646Z,102693.16
2023-02-14T21:41:55.936Z,102693.41
2023-02-14T21:44:22.440Z,102695.03
2023-02-14T21:46:48.746Z,102687.81
2023-02-14T21:49:15.066Z,102688.19
2023-02-14T21:51:41.837Z,102689.31
2023-02-14T21:54:09.699Z,102691.06
2023-02-14T21:56:37.036Z,102681.59
2023-02-14T21:59:03.685Z,102682.66
2023-02-14T22:01:31.393Z,102683.69
2023-02-14T22:03:58.084Z,102683.94
2023-02-14T22:06:25.122Z,102675.94
2023-02-14T22:08:51.988Z,102673.25
2023-02-14T22:11:20.039Z,102670.50
2023-02-14T22:13:46.348Z,102665.19
2023-02-14T22:16:14.075Z,102672.16
2023-02-14T22:18:40.974Z,102674.56
2023-02-14T22:21:08.199Z,102664.75
2023-02-14T22:23:34.999Z,102665.41
2023-02-14T22:26:07.233Z,102672.56
2023-02-14T22:28:34.858Z,102672.94
2023-02-14T22:31:01.537Z,102675.69
2023-02-14T22:33:28.205Z,102673.25
2023-02-14T22:35:54.643Z,102669.81
2023-02-14T22:38:20.975Z,102663.00
2023-02-14T22:40:47.289Z,102662.84
2023-02-14T22:43:13.607Z,102654.00
2023-02-14T22:45:41.285Z,102661.44
2023-02-14T22:48:07.580Z,102663.22
2023-02-14T22:50:33.888Z,102662.56
2023-02-14T22:53:01.058Z,102659.47
2023-02-14T22:55:27.357Z,102658.63
2023-02-14T22:57:53.757Z,102661.34
2023-02-14T23:00:20.115Z,102656.28
2023-02-14T23:02:47.865Z,102663.28
2023-02-14T23:05:14.357Z,102644.22
2023-02-14T23:07:40.910Z,102649.75
2023-02-14T23:10:07.734Z,102647.28
2023-02-14T23:12:34.171Z,102646.59
2023-02-14T23:15:00.499Z,102643.16
2023-02-14T23:17:26.785Z,102645.97
2023-02-14T23:19:54.451Z,102644.44
2023-02-14T23:22:21.552Z,102654.13
2023-02-14T23:24:49.036Z,102656.19
2023-02-14T23:27:16.550Z,102661.69
2023-02-14T23:29:42.894Z,102654.78
2023-02-14T23:32:09.659Z,102656.44
2023-02-14T23:34:37.753Z,102652.66
2023-02-14T23:37:05.566Z,102650.53
2023-02-14T23:39:31.853Z,102651.09
2023-02-14T23:41:58.156Z,102653.66
2023-02-14T23:44:25.326Z,102650.31
2023-02-14T23:46:52.968Z,102640.16
2023-02-14T23:49:19.654Z,102648.22
2023-02-14T23:51:46.610Z,102651.16
2023-02-14T23:54:14.681Z,102653.19
2023-02-14T23:56:41.246Z,102649.03
2023-02-14T23:59:07.950Z,102644.88
